sensor_id;sensor_type;location;lat;lon;timestamp;P1;durP1;ratioP1;P2;durP2;ratioP2
52718;SDS011;38616;42.140;24.760;2023-04-16T00:02:11;9.38;;;1.52;;
52718;SDS011;38616;42.140;24.760;2023-04-16T00:04:36;5.50;;;1.30;;
52718;SDS011;38616;42.140;24.760;2023-04-16T00:07:02;6.68;;;1.77;;
52718;SDS011;38616;42.140;24.760;2023-04-16T00:09:27;4.68;;;1.40;;
52718;SDS011;38616;42.140;24.760;2023-04-16T00:11:54;3.33;;;1.40;;
52718;SDS011;38616;42.140;24.760;2023-04-16T00:14:19;6.57;;;1.48;;
52718;SDS011;38616;42.140;24.760;2023-04-16T00:16:45;1.95;;;1.02;;
52718;SDS011;38616;42.140;24.760;2023-04-16T00:19:10;2.28;;;1.30;;
52718;SDS011;38616;42.140;24.760;2023-04-16T00:21:36;9.48;;;1.55;;
52718;SDS011;38616;42.140;24.760;2023-04-16T00:24:01;5.85;;;1.00;;
52718;SDS011;38616;42.140;24.760;2023-04-16T00:26:26;3.90;;;1.20;;
52718;SDS011;38616;42.140;24.760;2023-04-16T00:28:52;3.17;;;1.23;;
52718;SDS011;38616;42.140;24.760;2023-04-16T00:31:17;5.22;;;1.60;;
52718;SDS011;38616;42.140;24.760;2023-04-16T00:33:50;5.43;;;1.45;;
52718;SDS011;38616;42.140;24.760;2023-04-16T00:36:17;6.45;;;1.88;;
52718;SDS011;38616;42.140;24.760;2023-04-16T00:38:42;7.93;;;1.55;;
52718;SDS011;38616;42.140;24.760;2023-04-16T00:41:07;4.78;;;1.10;;
52718;SDS011;38616;42.140;24.760;2023-04-16T00:43:33;6.93;;;1.33;;
52718;SDS011;38616;42.140;24.760;2023-04-16T00:45:58;7.88;;;3.05;;
52718;SDS011;38616;42.140;24.760;2023-04-16T00:48:24;13.68;;;6.15;;
52718;SDS011;38616;42.140;24.760;2023-04-16T00:50:52;10.30;;;4.43;;
52718;SDS011;38616;42.140;24.760;2023-04-16T00:53:19;8.00;;;2.77;;
52718;SDS011;38616;42.140;24.760;2023-04-16T00:55:45;6.57;;;2.15;;
52718;SDS011;38616;42.140;24.760;2023-04-16T00:58:10;5.60;;;2.17;;
52718;SDS011;38616;42.140;24.760;2023-04-16T01:00:36;6.47;;;2.13;;
52718;SDS011;38616;42.140;24.760;2023-04-16T01:03:01;9.35;;;2.72;;
52718;SDS011;38616;42.140;24.760;2023-04-16T01:05:27;3.67;;;1.65;;
52718;SDS011;38616;42.140;24.760;2023-04-16T01:07:52;5.03;;;2.28;;
52718;SDS011;38616;42.140;24.760;2023-04-16T01:10:18;5.97;;;1.30;;
52718;SDS011;38616;42.140;24.760;2023-04-16T01:12:43;3.45;;;1.80;;
52718;SDS011;38616;42.140;24.760;2023-04-16T01:15:08;7.22;;;2.00;;
52718;SDS011;38616;42.140;24.760;2023-04-16T01:17:35;20.70;;;2.65;;
52718;SDS011;38616;42.140;24.760;2023-04-16T01:20:00;7.65;;;1.35;;
52718;SDS011;38616;42.140;24.760;2023-04-16T01:22:29;8.15;;;1.48;;
52718;SDS011;38616;42.140;24.760;2023-04-16T01:24:54;4.43;;;1.83;;
52718;SDS011;38616;42.140;24.760;2023-04-16T01:27:20;7.25;;;1.70;;
52718;SDS011;38616;42.140;24.760;2023-04-16T01:29:45;8.23;;;1.77;;
52718;SDS011;38616;42.140;24.760;2023-04-16T01:32:11;3.63;;;1.10;;
52718;SDS011;38616;42.140;24.760;2023-04-16T01:34:36;3.42;;;1.35;;
52718;SDS011;38616;42.140;24.760;2023-04-16T01:37:02;8.15;;;1.50;;
52718;SDS011;38616;42.140;24.760;2023-04-16T01:39:28;9.00;;;1.70;;
52718;SDS011;38616;42.140;24.760;2023-04-16T01:41:53;2.95;;;1.00;;
52718;SDS011;38616;42.140;24.760;2023-04-16T01:44:19;6.47;;;1.90;;
52718;SDS011;38616;42.140;24.760;2023-04-16T01:46:45;4.97;;;1.15;;
52718;SDS011;38616;42.140;24.760;2023-04-16T01:49:11;7.75;;;1.95;;
52718;SDS011;38616;42.140;24.760;2023-04-16T01:51:37;3.65;;;1.30;;
52718;SDS011;38616;42.140;24.760;2023-04-16T01:54:03;5.82;;;1.40;;
52718;SDS011;38616;42.140;24.760;2023-04-16T01:56:28;8.40;;;1.80;;
52718;SDS011;38616;42.140;24.760;2023-04-16T01:58:54;5.07;;;1.98;;
52718;SDS011;38616;42.140;24.760;2023-04-16T02:01:19;4.55;;;2.10;;
52718;SDS011;38616;42.140;24.760;2023-04-16T02:03:45;6.93;;;1.95;;
52718;SDS011;38616;42.140;24.760;2023-04-16T02:06:11;2.70;;;1.60;;
52718;SDS011;38616;42.140;24.760;2023-04-16T02:08:36;7.63;;;1.83;;
52718;SDS011;38616;42.140;24.760;2023-04-16T02:11:02;6.53;;;1.83;;
52718;SDS011;38616;42.140;24.760;2023-04-16T02:13:30;6.40;;;1.88;;
52718;SDS011;38616;42.140;24.760;2023-04-16T02:15:55;4.72;;;1.80;;
52718;SDS011;38616;42.140;24.760;2023-04-16T02:18:23;4.28;;;1.52;;
52718;SDS011;38616;42.140;24.760;2023-04-16T02:20:48;6.32;;;2.13;;
52718;SDS011;38616;42.140;24.760;2023-04-16T02:23:14;2.90;;;1.50;;
52718;SDS011;38616;42.140;24.760;2023-04-16T02:25:40;5.05;;;1.73;;
52718;SDS011;38616;42.140;24.760;2023-04-16T02:28:15;5.40;;;2.17;;
52718;SDS011;38616;42.140;24.760;2023-04-16T02:30:41;7.18;;;2.03;;
52718;SDS011;38616;42.140;24.760;2023-04-16T02:33:08;5.15;;;2.10;;
52718;SDS011;38616;42.140;24.760;2023-04-16T02:35:35;3.33;;;1.85;;
52718;SDS011;38616;42.140;24.760;2023-04-16T02:38:01;3.92;;;1.75;;
52718;SDS011;38616;42.140;24.760;2023-04-16T02:40:28;5.28;;;1.95;;
52718;SDS011;38616;42.140;24.760;2023-04-16T02:42:54;8.40;;;2.33;;
52718;SDS011;38616;42.140;24.760;2023-04-16T02:45:20;5.28;;;1.40;;
52718;SDS011;38616;42.140;24.760;2023-04-16T02:47:46;5.53;;;1.95;;
52718;SDS011;38616;42.140;24.760;2023-04-16T02:50:13;4.22;;;1.70;;
52718;SDS011;38616;42.140;24.760;2023-04-16T02:52:38;8.95;;;1.88;;
52718;SDS011;38616;42.140;24.760;2023-04-16T02:55:04;11.98;;;2.53;;
52718;SDS011;38616;42.140;24.760;2023-04-16T02:57:30;6.15;;;2.00;;
52718;SDS011;38616;42.140;24.760;2023-04-16T02:59:56;5.85;;;1.90;;
52718;SDS011;38616;42.140;24.760;2023-04-16T03:02:21;9.60;;;2.42;;
52718;SDS011;38616;42.140;24.760;2023-04-16T03:04:46;10.18;;;1.95;;
52718;SDS011;38616;42.140;24.760;2023-04-16T03:07:12;5.63;;;2.08;;
52718;SDS011;38616;42.140;24.760;2023-04-16T03:09:38;7.50;;;1.80;;
52718;SDS011;38616;42.140;24.760;2023-04-16T03:12:03;10.20;;;2.40;;
52718;SDS011;38616;42.140;24.760;2023-04-16T03:14:29;7.53;;;1.83;;
52718;SDS011;38616;42.140;24.760;2023-04-16T03:16:56;7.63;;;2.28;;
52718;SDS011;38616;42.140;24.760;2023-04-16T03:19:22;6.07;;;2.25;;
52718;SDS011;38616;42.140;24.760;2023-04-16T03:21:47;5.30;;;1.98;;
52718;SDS011;38616;42.140;24.760;2023-04-16T03:24:12;11.30;;;2.47;;
52718;SDS011;38616;42.140;24.760;2023-04-16T03:26:38;7.88;;;2.35;;
52718;SDS011;38616;42.140;24.760;2023-04-16T03:29:03;9.73;;;2.17;;
52718;SDS011;38616;42.140;24.760;2023-04-16T03:31:30;6.68;;;2.13;;
52718;SDS011;38616;42.140;24.760;2023-04-16T03:33:55;4.22;;;1.90;;
52718;SDS011;38616;42.140;24.760;2023-04-16T03:36:21;3.50;;;2.47;;
52718;SDS011;38616;42.140;24.760;2023-04-16T03:38:51;7.00;;;2.15;;
52718;SDS011;38616;42.140;24.760;2023-04-16T03:41:16;7.07;;;2.38;;
52718;SDS011;38616;42.140;24.760;2023-04-16T03:43:42;8.45;;;3.05;;
52718;SDS011;38616;42.140;24.760;2023-04-16T03:46:07;5.90;;;2.05;;
52718;SDS011;38616;42.140;24.760;2023-04-16T03:48:32;4.78;;;2.08;;
52718;SDS011;38616;42.140;24.760;2023-04-16T03:50:58;5.95;;;2.50;;
52718;SDS011;38616;42.140;24.760;2023-04-16T03:53:23;7.10;;;2.60;;
52718;SDS011;38616;42.140;24.760;2023-04-16T03:55:49;9.07;;;3.17;;
52718;SDS011;38616;42.140;24.760;2023-04-16T03:58:15;6.30;;;2.42;;
52718;SDS011;38616;42.140;24.760;2023-04-16T04:00:41;5.35;;;2.30;;
52718;SDS011;38616;42.140;24.760;2023-04-16T04:03:07;7.70;;;2.67;;
52718;SDS011;38616;42.140;24.760;2023-04-16T04:05:36;9.13;;;3.20;;
52718;SDS011;38616;42.140;24.760;2023-04-16T04:08:03;7.57;;;2.70;;
52718;SDS011;38616;42.140;24.760;2023-04-16T04:10:30;6.35;;;2.85;;
52718;SDS011;38616;42.140;24.760;2023-04-16T04:12:57;6.38;;;2.50;;
52718;SDS011;38616;42.140;24.760;2023-04-16T04:15:22;9.48;;;3.25;;
52718;SDS011;38616;42.140;24.760;2023-04-16T04:17:47;8.13;;;3.25;;
52718;SDS011;38616;42.140;24.760;2023-04-16T04:20:13;8.68;;;3.70;;
52718;SDS011;38616;42.140;24.760;2023-04-16T04:22:38;10.63;;;3.95;;
52718;SDS011;38616;42.140;24.760;2023-04-16T04:25:04;6.95;;;3.65;;
52718;SDS011;38616;42.140;24.760;2023-04-16T04:27:29;13.23;;;4.18;;
52718;SDS011;38616;42.140;24.760;2023-04-16T04:29:55;7.88;;;4.10;;
52718;SDS011;38616;42.140;24.760;2023-04-16T04:32:20;10.82;;;4.05;;
52718;SDS011;38616;42.140;24.760;2023-04-16T04:34:48;9.73;;;3.85;;
52718;SDS011;38616;42.140;24.760;2023-04-16T04:37:14;14.82;;;4.00;;
52718;SDS011;38616;42.140;24.760;2023-04-16T04:39:39;15.23;;;3.63;;
52718;SDS011;38616;42.140;24.760;2023-04-16T04:42:05;8.75;;;2.97;;
52718;SDS011;38616;42.140;24.760;2023-04-16T04:44:31;8.55;;;3.20;;
52718;SDS011;38616;42.140;24.760;2023-04-16T04:46:56;8.15;;;3.38;;
52718;SDS011;38616;42.140;24.760;2023-04-16T04:49:21;6.53;;;3.00;;
52718;SDS011;38616;42.140;24.760;2023-04-16T04:51:47;9.73;;;3.60;;
52718;SDS011;38616;42.140;24.760;2023-04-16T04:54:12;6.82;;;2.90;;
52718;SDS011;38616;42.140;24.760;2023-04-16T04:56:38;4.97;;;2.88;;
52718;SDS011;38616;42.140;24.760;2023-04-16T04:59:03;9.77;;;3.00;;
52718;SDS011;38616;42.140;24.760;2023-04-16T05:01:29;9.20;;;3.72;;
52718;SDS011;38616;42.140;24.760;2023-04-16T05:03:55;9.82;;;3.75;;
52718;SDS011;38616;42.140;24.760;2023-04-16T05:06:20;9.93;;;3.42;;
52718;SDS011;38616;42.140;24.760;2023-04-16T05:08:45;7.03;;;2.90;;
52718;SDS011;38616;42.140;24.760;2023-04-16T05:11:11;7.75;;;2.97;;
52718;SDS011;38616;42.140;24.760;2023-04-16T05:13:36;6.80;;;3.20;;
52718;SDS011;38616;42.140;24.760;2023-04-16T05:16:02;9.65;;;3.05;;
52718;SDS011;38616;42.140;24.760;2023-04-16T05:18:27;9.98;;;3.75;;
52718;SDS011;38616;42.140;24.760;2023-04-16T05:20:53;9.85;;;5.22;;
52718;SDS011;38616;42.140;24.760;2023-04-16T05:23:18;7.45;;;3.53;;
52718;SDS011;38616;42.140;24.760;2023-04-16T05:25:43;11.82;;;4.03;;
52718;SDS011;38616;42.140;24.760;2023-04-16T05:28:09;9.70;;;4.50;;
52718;SDS011;38616;42.140;24.760;2023-04-16T05:30:34;5.82;;;3.08;;
52718;SDS011;38616;42.140;24.760;2023-04-16T05:33:00;9.32;;;3.60;;
52718;SDS011;38616;42.140;24.760;2023-04-16T05:35:25;8.27;;;4.55;;
52718;SDS011;38616;42.140;24.760;2023-04-16T05:37:51;13.88;;;4.30;;
52718;SDS011;38616;42.140;24.760;2023-04-16T05:40:17;12.20;;;4.85;;
52718;SDS011;38616;42.140;24.760;2023-04-16T05:42:42;8.88;;;4.10;;
52718;SDS011;38616;42.140;24.760;2023-04-16T05:45:08;11.35;;;3.08;;
52718;SDS011;38616;42.140;24.760;2023-04-16T05:47:33;8.85;;;3.33;;
52718;SDS011;38616;42.140;24.760;2023-04-16T05:49:59;11.65;;;3.50;;
52718;SDS011;38616;42.140;24.760;2023-04-16T05:52:24;11.52;;;4.97;;
52718;SDS011;38616;42.140;24.760;2023-04-16T05:54:49;10.07;;;2.97;;
52718;SDS011;38616;42.140;24.760;2023-04-16T05:57:15;10.05;;;2.70;;
52718;SDS011;38616;42.140;24.760;2023-04-16T05:59:40;8.85;;;2.50;;
52718;SDS011;38616;42.140;24.760;2023-04-16T06:02:06;8.52;;;2.22;;
52718;SDS011;38616;42.140;24.760;2023-04-16T06:04:31;12.32;;;3.10;;
52718;SDS011;38616;42.140;24.760;2023-04-16T06:06:56;14.05;;;6.00;;
52718;SDS011;38616;42.140;24.760;2023-04-16T06:09:22;9.73;;;3.00;;
52718;SDS011;38616;42.140;24.760;2023-04-16T06:11:48;10.18;;;3.20;;
52718;SDS011;38616;42.140;24.760;2023-04-16T06:14:14;11.35;;;3.45;;
52718;SDS011;38616;42.140;24.760;2023-04-16T06:16:39;8.77;;;3.60;;
52718;SDS011;38616;42.140;24.760;2023-04-16T06:19:05;10.48;;;3.53;;
52718;SDS011;38616;42.140;24.760;2023-04-16T06:21:30;17.05;;;5.25;;
52718;SDS011;38616;42.140;24.760;2023-04-16T06:23:56;14.48;;;2.80;;
52718;SDS011;38616;42.140;24.760;2023-04-16T06:26:21;9.20;;;2.20;;
52718;SDS011;38616;42.140;24.760;2023-04-16T06:28:47;8.45;;;2.80;;
52718;SDS011;38616;42.140;24.760;2023-04-16T06:31:13;7.43;;;2.63;;
52718;SDS011;38616;42.140;24.760;2023-04-16T06:33:38;4.88;;;2.25;;
52718;SDS011;38616;42.140;24.760;2023-04-16T06:36:04;6.05;;;1.95;;
52718;SDS011;38616;42.140;24.760;2023-04-16T06:38:30;6.80;;;3.03;;
52718;SDS011;38616;42.140;24.760;2023-04-16T06:40:55;8.07;;;2.72;;
52718;SDS011;38616;42.140;24.760;2023-04-16T06:43:21;7.78;;;2.75;;
52718;SDS011;38616;42.140;24.760;2023-04-16T06:45:46;11.10;;;2.78;;
52718;SDS011;38616;42.140;24.760;2023-04-16T06:48:11;6.43;;;2.38;;
52718;SDS011;38616;42.140;24.760;2023-04-16T06:50:37;12.38;;;4.13;;
52718;SDS011;38616;42.140;24.760;2023-04-16T06:53:02;8.32;;;2.83;;
52718;SDS011;38616;42.140;24.760;2023-04-16T06:55:28;9.48;;;2.22;;
52718;SDS011;38616;42.140;24.760;2023-04-16T06:57:53;7.68;;;2.97;;
52718;SDS011;38616;42.140;24.760;2023-04-16T07:00:18;8.73;;;2.60;;
52718;SDS011;38616;42.140;24.760;2023-04-16T07:02:44;6.15;;;2.08;;
52718;SDS011;38616;42.140;24.760;2023-04-16T07:05:09;6.57;;;2.30;;
52718;SDS011;38616;42.140;24.760;2023-04-16T07:07:35;8.77;;;2.80;;
52718;SDS011;38616;42.140;24.760;2023-04-16T07:10:00;8.35;;;2.40;;
52718;SDS011;38616;42.140;24.760;2023-04-16T07:12:26;6.70;;;2.72;;
52718;SDS011;38616;42.140;24.760;2023-04-16T07:14:51;7.88;;;2.35;;
52718;SDS011;38616;42.140;24.760;2023-04-16T07:17:17;6.47;;;2.25;;
52718;SDS011;38616;42.140;24.760;2023-04-16T07:19:43;6.38;;;2.45;;
52718;SDS011;38616;42.140;24.760;2023-04-16T07:22:08;5.97;;;2.75;;
52718;SDS011;38616;42.140;24.760;2023-04-16T07:24:33;14.65;;;2.80;;
52718;SDS011;38616;42.140;24.760;2023-04-16T07:26:59;5.32;;;2.50;;
52718;SDS011;38616;42.140;24.760;2023-04-16T07:29:25;6.05;;;2.50;;
52718;SDS011;38616;42.140;24.760;2023-04-16T07:31:50;5.05;;;1.80;;
52718;SDS011;38616;42.140;24.760;2023-04-16T07:34:16;8.43;;;2.50;;
52718;SDS011;38616;42.140;24.760;2023-04-16T07:36:41;8.43;;;1.92;;
52718;SDS011;38616;42.140;24.760;2023-04-16T07:39:06;5.72;;;1.95;;
52718;SDS011;38616;42.140;24.760;2023-04-16T07:41:32;7.97;;;2.42;;
52718;SDS011;38616;42.140;24.760;2023-04-16T07:43:58;10.95;;;3.25;;
52718;SDS011;38616;42.140;24.760;2023-04-16T07:46:23;9.80;;;2.88;;
52718;SDS011;38616;42.140;24.760;2023-04-16T07:48:49;9.98;;;2.42;;
52718;SDS011;38616;42.140;24.760;2023-04-16T07:51:14;7.60;;;2.13;;
52718;SDS011;38616;42.140;24.760;2023-04-16T07:53:42;6.88;;;2.30;;
52718;SDS011;38616;42.140;24.760;2023-04-16T07:56:07;3.97;;;2.13;;
52718;SDS011;38616;42.140;24.760;2023-04-16T07:58:33;10.23;;;2.22;;
52718;SDS011;38616;42.140;24.760;2023-04-16T08:00:58;8.32;;;2.40;;
52718;SDS011;38616;42.140;24.760;2023-04-16T08:03:24;7.90;;;2.15;;
52718;SDS011;38616;42.140;24.760;2023-04-16T08:05:49;8.10;;;2.90;;
52718;SDS011;38616;42.140;24.760;2023-04-16T08:08:15;6.50;;;1.80;;
52718;SDS011;38616;42.140;24.760;2023-04-16T08:10:40;33.55;;;14.13;;
52718;SDS011;38616;42.140;24.760;2023-04-16T08:13:06;15.57;;;6.55;;
52718;SDS011;38616;42.140;24.760;2023-04-16T08:15:34;10.43;;;2.53;;
52718;SDS011;38616;42.140;24.760;2023-04-16T08:17:59;10.55;;;2.85;;
52718;SDS011;38616;42.140;24.760;2023-04-16T08:20:24;6.80;;;2.70;;
52718;SDS011;38616;42.140;24.760;2023-04-16T08:22:50;9.50;;;3.10;;
52718;SDS011;38616;42.140;24.760;2023-04-16T08:25:20;8.80;;;2.70;;
52718;SDS011;38616;42.140;24.760;2023-04-16T08:27:47;6.38;;;2.53;;
52718;SDS011;38616;42.140;24.760;2023-04-16T08:30:13;5.60;;;2.33;;
52718;SDS011;38616;42.140;24.760;2023-04-16T08:32:40;5.63;;;2.47;;
52718;SDS011;38616;42.140;24.760;2023-04-16T08:35:07;8.60;;;2.90;;
52718;SDS011;38616;42.140;24.760;2023-04-16T08:37:33;5.32;;;2.80;;
52718;SDS011;38616;42.140;24.760;2023-04-16T08:39:58;10.48;;;4.05;;
52718;SDS011;38616;42.140;24.760;2023-04-16T08:42:39;9.27;;;3.03;;
52718;SDS011;38616;42.140;24.760;2023-04-16T08:45:13;11.63;;;3.65;;
52718;SDS011;38616;42.140;24.760;2023-04-16T08:47:40;8.68;;;3.80;;
52718;SDS011;38616;42.140;24.760;2023-04-16T08:50:10;8.13;;;3.00;;
52718;SDS011;38616;42.140;24.760;2023-04-16T08:52:42;9.60;;;3.05;;
52718;SDS011;38616;42.140;24.760;2023-04-16T08:55:12;8.73;;;4.05;;
52718;SDS011;38616;42.140;24.760;2023-04-16T08:57:43;9.52;;;3.08;;
52718;SDS011;38616;42.140;24.760;2023-04-16T09:00:22;7.07;;;2.50;;
52718;SDS011;38616;42.140;24.760;2023-04-16T09:02:48;7.88;;;2.58;;
52718;SDS011;38616;42.140;24.760;2023-04-16T09:05:14;8.25;;;3.60;;
52718;SDS011;38616;42.140;24.760;2023-04-16T09:07:46;7.70;;;3.20;;
52718;SDS011;38616;42.140;24.760;2023-04-16T09:10:12;7.05;;;2.97;;
52718;SDS011;38616;42.140;24.760;2023-04-16T09:12:39;10.75;;;3.38;;
52718;SDS011;38616;42.140;24.760;2023-04-16T09:15:08;10.77;;;2.80;;
52718;SDS011;38616;42.140;24.760;2023-04-16T09:17:35;11.20;;;3.20;;
52718;SDS011;38616;42.140;24.760;2023-04-16T09:20:01;7.03;;;2.80;;
52718;SDS011;38616;42.140;24.760;2023-04-16T09:22:29;10.75;;;3.50;;
52718;SDS011;38616;42.140;24.760;2023-04-16T09:24:55;8.45;;;2.78;;
52718;SDS011;38616;42.140;24.760;2023-04-16T09:27:21;10.45;;;2.53;;
52718;SDS011;38616;42.140;24.760;2023-04-16T09:29:47;5.75;;;1.90;;
52718;SDS011;38616;42.140;24.760;2023-04-16T09:32:13;6.80;;;3.00;;
52718;SDS011;38616;42.140;24.760;2023-04-16T09:37:27;9.20;;;2.33;;
52718;SDS011;38616;42.140;24.760;2023-04-16T09:42:32;8.77;;;2.40;;
52718;SDS011;38616;42.140;24.760;2023-04-16T09:45:01;7.22;;;3.03;;
52718;SDS011;38616;42.140;24.760;2023-04-16T09:47:38;8.50;;;3.42;;
52718;SDS011;38616;42.140;24.760;2023-04-16T09:50:08;8.90;;;3.30;;
52718;SDS011;38616;42.140;24.760;2023-04-16T09:52:38;10.20;;;2.42;;
52718;SDS011;38616;42.140;24.760;2023-04-16T09:55:03;4.60;;;2.20;;
52718;SDS011;38616;42.140;24.760;2023-04-16T09:57:29;8.32;;;2.05;;
52718;SDS011;38616;42.140;24.760;2023-04-16T09:59:59;7.65;;;2.08;;
52718;SDS011;38616;42.140;24.760;2023-04-16T10:02:26;11.38;;;2.55;;
52718;SDS011;38616;42.140;24.760;2023-04-16T10:04:53;9.90;;;1.98;;
52718;SDS011;38616;42.140;24.760;2023-04-16T10:07:19;5.63;;;2.22;;
52718;SDS011;38616;42.140;24.760;2023-04-16T10:09:46;8.48;;;2.80;;
52718;SDS011;38616;42.140;24.760;2023-04-16T10:12:15;6.53;;;2.87;;
52718;SDS011;38616;42.140;24.760;2023-04-16T10:14:41;6.65;;;2.42;;
52718;SDS011;38616;42.140;24.760;2023-04-16T10:17:07;8.98;;;2.55;;
52718;SDS011;38616;42.140;24.760;2023-04-16T10:19:33;11.27;;;3.75;;
52718;SDS011;38616;42.140;24.760;2023-04-16T10:21:59;6.80;;;2.00;;
52718;SDS011;38616;42.140;24.760;2023-04-16T10:24:25;6.30;;;1.83;;
52718;SDS011;38616;42.140;24.760;2023-04-16T10:26:52;7.40;;;1.80;;
52718;SDS011;38616;42.140;24.760;2023-04-16T10:29:19;9.57;;;2.40;;
52718;SDS011;38616;42.140;24.760;2023-04-16T10:31:45;5.00;;;2.00;;
52718;SDS011;38616;42.140;24.760;2023-04-16T10:34:13;10.43;;;2.30;;
52718;SDS011;38616;42.140;24.760;2023-04-16T10:36:39;3.80;;;2.13;;
52718;SDS011;38616;42.140;24.760;2023-04-16T10:39:08;4.35;;;1.83;;
52718;SDS011;38616;42.140;24.760;2023-04-16T10:41:35;6.95;;;2.83;;
52718;SDS011;38616;42.140;24.760;2023-04-16T10:44:05;4.43;;;2.28;;
52718;SDS011;38616;42.140;24.760;2023-04-16T10:49:11;4.82;;;1.98;;
52718;SDS011;38616;42.140;24.760;2023-04-16T10:51:37;7.32;;;2.50;;
52718;SDS011;38616;42.140;24.760;2023-04-16T10:56:36;6.97;;;1.80;;
52718;SDS011;38616;42.140;24.760;2023-04-16T10:59:05;14.10;;;6.15;;
52718;SDS011;38616;42.140;24.760;2023-04-16T11:01:40;10.75;;;3.90;;
52718;SDS011;38616;42.140;24.760;2023-04-16T11:07:04;5.60;;;2.00;;
52718;SDS011;38616;42.140;24.760;2023-04-16T11:12:23;5.72;;;2.72;;
52718;SDS011;38616;42.140;24.760;2023-04-16T11:15:05;9.18;;;2.38;;
52718;SDS011;38616;42.140;24.760;2023-04-16T11:22:49;6.25;;;2.10;;
52718;SDS011;38616;42.140;24.760;2023-04-16T11:25:25;14.33;;;6.30;;
52718;SDS011;38616;42.140;24.760;2023-04-16T11:27:54;7.82;;;2.50;;
52718;SDS011;38616;42.140;24.760;2023-04-16T11:30:31;8.60;;;2.78;;
52718;SDS011;38616;42.140;24.760;2023-04-16T11:32:58;6.82;;;2.58;;
52718;SDS011;38616;42.140;24.760;2023-04-16T11:35:26;7.70;;;2.25;;
52718;SDS011;38616;42.140;24.760;2023-04-16T11:37:54;7.13;;;2.67;;
52718;SDS011;38616;42.140;24.760;2023-04-16T11:40:20;6.75;;;2.50;;
52718;SDS011;38616;42.140;24.760;2023-04-16T11:42:46;10.30;;;3.13;;
52718;SDS011;38616;42.140;24.760;2023-04-16T11:45:11;5.97;;;2.60;;
52718;SDS011;38616;42.140;24.760;2023-04-16T11:47:47;7.53;;;2.38;;
52718;SDS011;38616;42.140;24.760;2023-04-16T11:50:17;10.20;;;2.95;;
52718;SDS011;38616;42.140;24.760;2023-04-16T11:52:47;9.23;;;3.08;;
52718;SDS011;38616;42.140;24.760;2023-04-16T11:55:13;11.32;;;2.92;;
52718;SDS011;38616;42.140;24.760;2023-04-16T11:57:39;11.60;;;3.65;;
52718;SDS011;38616;42.140;24.760;2023-04-16T12:00:05;8.23;;;3.00;;
52718;SDS011;38616;42.140;24.760;2023-04-16T12:05:28;6.93;;;2.38;;
52718;SDS011;38616;42.140;24.760;2023-04-16T12:07:54;8.20;;;2.50;;
52718;SDS011;38616;42.140;24.760;2023-04-16T12:10:19;7.47;;;2.88;;
52718;SDS011;38616;42.140;24.760;2023-04-16T12:12:45;13.30;;;2.83;;
52718;SDS011;38616;42.140;24.760;2023-04-16T12:15:10;9.75;;;2.42;;
52718;SDS011;38616;42.140;24.760;2023-04-16T12:17:36;6.13;;;2.38;;
52718;SDS011;38616;42.140;24.760;2023-04-16T12:20:03;12.90;;;3.13;;
52718;SDS011;38616;42.140;24.760;2023-04-16T12:22:34;10.10;;;2.33;;
52718;SDS011;38616;42.140;24.760;2023-04-16T12:25:07;9.52;;;2.97;;
52718;SDS011;38616;42.140;24.760;2023-04-16T12:27:48;13.52;;;2.63;;
52718;SDS011;38616;42.140;24.760;2023-04-16T12:30:23;6.32;;;2.30;;
52718;SDS011;38616;42.140;24.760;2023-04-16T12:33:13;11.60;;;2.97;;
52718;SDS011;38616;42.140;24.760;2023-04-16T12:35:42;9.15;;;3.60;;
52718;SDS011;38616;42.140;24.760;2023-04-16T12:40:35;7.30;;;2.60;;
52718;SDS011;38616;42.140;24.760;2023-04-16T12:43:01;17.45;;;5.72;;
52718;SDS011;38616;42.140;24.760;2023-04-16T12:45:27;21.20;;;6.90;;
52718;SDS011;38616;42.140;24.760;2023-04-16T12:47:52;23.15;;;5.50;;
52718;SDS011;38616;42.140;24.760;2023-04-16T12:50:18;17.83;;;5.85;;
52718;SDS011;38616;42.140;24.760;2023-04-16T12:52:43;14.85;;;4.50;;
52718;SDS011;38616;42.140;24.760;2023-04-16T12:55:09;19.10;;;5.60;;
52718;SDS011;38616;42.140;24.760;2023-04-16T12:57:35;15.32;;;5.10;;
52718;SDS011;38616;42.140;24.760;2023-04-16T13:00:02;16.70;;;5.05;;
52718;SDS011;38616;42.140;24.760;2023-04-16T13:02:30;14.95;;;4.28;;
52718;SDS011;38616;42.140;24.760;2023-04-16T13:04:56;8.25;;;2.42;;
52718;SDS011;38616;42.140;24.760;2023-04-16T13:07:22;6.85;;;3.10;;
52718;SDS011;38616;42.140;24.760;2023-04-16T13:09:48;12.73;;;3.67;;
52718;SDS011;38616;42.140;24.760;2023-04-16T13:12:14;12.02;;;3.47;;
52718;SDS011;38616;42.140;24.760;2023-04-16T13:14:39;9.82;;;3.72;;
52718;SDS011;38616;42.140;24.760;2023-04-16T13:17:05;13.68;;;4.07;;
52718;SDS011;38616;42.140;24.760;2023-04-16T13:19:31;12.63;;;3.33;;
52718;SDS011;38616;42.140;24.760;2023-04-16T13:21:56;18.48;;;5.95;;
52718;SDS011;38616;42.140;24.760;2023-04-16T13:24:23;21.45;;;6.20;;
52718;SDS011;38616;42.140;24.760;2023-04-16T13:26:49;15.85;;;5.90;;
52718;SDS011;38616;42.140;24.760;2023-04-16T13:29:16;6.78;;;2.85;;
52718;SDS011;38616;42.140;24.760;2023-04-16T13:31:41;10.40;;;2.97;;
52718;SDS011;38616;42.140;24.760;2023-04-16T13:34:07;5.00;;;2.25;;
52718;SDS011;38616;42.140;24.760;2023-04-16T13:36:32;6.28;;;2.33;;
52718;SDS011;38616;42.140;24.760;2023-04-16T13:38:58;9.60;;;2.67;;
52718;SDS011;38616;42.140;24.760;2023-04-16T13:41:23;10.85;;;3.15;;
52718;SDS011;38616;42.140;24.760;2023-04-16T13:43:49;21.45;;;9.93;;
52718;SDS011;38616;42.140;24.760;2023-04-16T13:46:14;60.92;;;31.92;;
52718;SDS011;38616;42.140;24.760;2023-04-16T13:48:43;45.65;;;21.92;;
52718;SDS011;38616;42.140;24.760;2023-04-16T13:51:08;19.25;;;7.40;;
52718;SDS011;38616;42.140;24.760;2023-04-16T13:53:34;10.43;;;3.38;;
52718;SDS011;38616;42.140;24.760;2023-04-16T13:56:00;8.18;;;3.38;;
52718;SDS011;38616;42.140;24.760;2023-04-16T13:58:27;5.72;;;2.70;;
52718;SDS011;38616;42.140;24.760;2023-04-16T14:00:53;4.32;;;2.47;;
52718;SDS011;38616;42.140;24.760;2023-04-16T14:03:18;16.52;;;5.25;;
52718;SDS011;38616;42.140;24.760;2023-04-16T14:05:43;19.73;;;6.05;;
52718;SDS011;38616;42.140;24.760;2023-04-16T14:08:09;12.60;;;4.00;;
52718;SDS011;38616;42.140;24.760;2023-04-16T14:10:34;8.50;;;3.63;;
52718;SDS011;38616;42.140;24.760;2023-04-16T14:13:00;14.75;;;6.18;;
52718;SDS011;38616;42.140;24.760;2023-04-16T14:15:26;29.52;;;13.30;;
52718;SDS011;38616;42.140;24.760;2023-04-16T14:17:53;10.23;;;4.03;;
52718;SDS011;38616;42.140;24.760;2023-04-16T14:20:19;6.47;;;2.70;;
52718;SDS011;38616;42.140;24.760;2023-04-16T14:22:44;18.27;;;6.60;;
52718;SDS011;38616;42.140;24.760;2023-04-16T14:25:10;12.05;;;4.13;;
52718;SDS011;38616;42.140;24.760;2023-04-16T14:27:36;9.15;;;3.13;;
52718;SDS011;38616;42.140;24.760;2023-04-16T14:30:01;10.98;;;3.03;;
52718;SDS011;38616;42.140;24.760;2023-04-16T14:32:27;14.52;;;4.97;;
52718;SDS011;38616;42.140;24.760;2023-04-16T14:34:54;18.13;;;6.53;;
52718;SDS011;38616;42.140;24.760;2023-04-16T14:37:19;19.95;;;6.97;;
52718;SDS011;38616;42.140;24.760;2023-04-16T14:39:45;12.68;;;3.50;;
52718;SDS011;38616;42.140;24.760;2023-04-16T14:42:10;9.35;;;3.08;;
52718;SDS011;38616;42.140;24.760;2023-04-16T14:44:36;12.30;;;3.22;;
52718;SDS011;38616;42.140;24.760;2023-04-16T14:47:01;12.35;;;6.47;;
52718;SDS011;38616;42.140;24.760;2023-04-16T14:49:27;7.82;;;2.40;;
52718;SDS011;38616;42.140;24.760;2023-04-16T14:51:52;7.82;;;2.55;;
52718;SDS011;38616;42.140;24.760;2023-04-16T14:54:18;10.65;;;3.58;;